Time;durP1;ratioP1;P1;durP2;ratioP2;P2;SDS_P1;SDS_P2;PMS_P1;PMS_P2;Temp;Humidity;BMP_temperature;BMP_pressure;BME280_temperature;BME280_humidity;BME280_pressure;Samples;Min_cycle;Max_cycle;Signal;HPM_P1;HPM_P2
2023/07/06 00:04:58;;;;;;;12.60;6.10;;;;;;;17.70;100.00;98910.63;273564;1266;22233;-82
2023/07/06 00:11:38;;;;;;;;;;;;;;;;;;;;;
2023/07/06 00:18:04;;;;;;;9.80;5.90;;;;;;;17.56;100.00;98908.83;273253;1265;22530;-81
2023/07/06 00:24:07;;;;;;;10.60;5.70;;;;;;;17.46;100.00;98913.66;273496;1256;22440;-82
2023/07/06 00:30:17;;;;;;;11.20;5.40;;;;;;;17.46;100.00;98916.74;274061;1255;22292;-82
2023/07/06 00:36:18;;;;;;;16.00;5.80;;;;;;;17.43;100.00;98920.02;273838;1257;22375;-81
2023/07/06 00:42:24;;;;;;;8.00;5.30;;;;;;;17.45;100.00;98925.30;273963;1266;22346;-81
2023/07/06 00:48:32;;;;;;;10.10;5.90;;;;;;;17.45;100.00;98933.52;273831;1266;23538;-81
2023/07/06 00:54:51;;;;;;;12.90;5.40;;;;;;;17.43;100.00;98930.39;273464;1266;22365;-81
2023/07/06 01:00:57;;;;;;;7.00;4.80;;;;;;;17.36;100.00;98931.91;273093;1266;22400;-80
2023/07/06 01:06:59;;;;;;;9.90;5.60;;;;;;;17.27;100.00;98931.29;273691;1266;22409;-80
2023/07/06 01:13:00;;;;;;;10.60;5.90;;;;;;;17.28;100.00;98932.39;273988;1266;23877;-81
2023/07/06 01:19:43;;;;;;;10.50;4.70;;;;;;;17.29;100.00;98930.94;273891;1266;22510;-81
2023/07/06 01:26:43;;;;;;;7.60;4.70;;;;;;;17.28;100.00;98923.84;273974;1266;23667;-82
2023/07/06 01:32:48;;;;;;;11.60;4.60;;;;;;;17.17;100.00;98922.36;271711;1263;22384;-81
2023/07/06 01:39:20;;;;;;;11.90;6.60;;;;;;;17.09;100.00;98918.55;273936;1266;22490;-81
2023/07/06 01:45:23;;;;;;;7.50;4.80;;;;;;;17.09;100.00;98916.48;273533;1267;22247;-81
2023/07/06 01:51:40;;;;;;;8.60;4.80;;;;;;;17.00;100.00;98921.91;273475;1267;24253;-82
2023/07/06 01:58:04;;;;;;;9.00;5.00;;;;;;;16.90;100.00;98924.84;270488;1255;22558;-81
2023/07/06 02:04:27;;;;;;;8.00;4.20;;;;;;;16.87;100.00;98932.16;271124;1266;22566;-82
2023/07/06 02:10:30;;;;;;;9.50;4.70;;;;;;;16.83;100.00;98936.48;273762;1254;22552;-83
2023/07/06 02:16:31;;;;;;;9.70;4.90;;;;;;;16.79;100.00;98939.22;273851;1266;22393;-81
2023/07/06 02:22:32;;;;;;;7.40;5.00;;;;;;;16.73;100.00;98939.48;273977;1255;22201;-80
2023/07/06 02:28:35;;;;;;;12.00;4.90;;;;;;;16.60;100.00;98943.30;272780;1266;22216;-81
2023/07/06 02:34:40;;;;;;;10.40;5.50;;;;;;;16.55;100.00;98950.30;271021;1266;22526;-81
2023/07/06 02:40:44;;;;;;;8.20;5.20;;;;;;;16.50;100.00;98961.11;270531;1258;22545;-82
2023/07/06 02:46:44;;;;;;;11.60;5.40;;;;;;;16.52;100.00;98965.50;270367;1264;22604;-81
2023/07/06 02:52:47;;;;;;;8.20;5.30;;;;;;;16.52;100.00;98969.92;271094;1266;23343;-82
2023/07/06 02:58:58;;;;;;;11.40;5.90;;;;;;;16.53;100.00;98972.60;272781;1266;23049;-83
2023/07/06 03:04:59;;;;;;;12.70;6.50;;;;;;;16.53;100.00;98986.88;273371;1266;23364;-81
2023/07/06 03:11:20;;;;;;;14.30;6.30;;;;;;;16.44;100.00;98994.94;273634;1266;100746;-81
2023/07/06 03:17:21;;;;;;;12.30;7.30;;;;;;;16.35;100.00;99003.97;273839;1267;22417;-81
2023/07/06 03:23:23;;;;;;;12.60;6.50;;;;;;;16.29;100.00;99011.06;273447;1266;22942;-80
2023/07/06 03:29:24;;;;;;;9.50;7.00;;;;;;;16.27;100.00;99015.12;273811;1259;22308;-82
2023/07/06 03:35:26;;;;;;;11.20;6.80;;;;;;;16.30;100.00;99019.66;273725;1266;22229;-83
2023/07/06 03:41:27;;;;;;;9.70;6.10;;;;;;;16.28;100.00;99032.30;274008;1266;22434;-81
2023/07/06 03:47:28;;;;;;;10.90;5.70;;;;;;;16.36;100.00;99035.13;273989;1266;23382;-80
2023/07/06 03:53:56;;;;;;;;;;;;;;;;;;;;;
2023/07/06 04:00:37;;;;;;;11.50;4.90;;;;;;;16.48;100.00;99045.05;271190;1266;23663;-82
2023/07/06 04:06:31;;;;;;;11.00;5.50;;;;;;;16.54;100.00;99055.02;270505;1260;23071;-81
2023/07/06 04:12:32;;;;;;;14.20;5.10;;;;;;;16.59;100.00;99060.71;270648;1257;22570;-82
2023/07/06 04:18:33;;;;;;;11.20;5.40;;;;;;;16.63;100.00;99060.52;273029;1257;22233;-81
2023/07/06 04:24:35;;;;;;;11.40;6.70;;;;;;;16.70;100.00;99075.75;271208;1265;25430;-82
2023/07/06 04:30:39;;;;;;;11.60;5.30;;;;;;;16.79;100.00;99091.57;272216;1266;22709;-81
2023/07/06 04:36:40;;;;;;;8.70;5.60;;;;;;;16.85;100.00;99089.14;273429;1267;22639;-82
2023/07/06 04:42:41;;;;;;;10.90;5.30;;;;;;;16.93;100.00;99091.09;273700;1260;22472;-81
2023/07/06 04:48:44;;;;;;;10.10;5.50;;;;;;;17.03;100.00;99096.40;273849;1266;22188;-82
2023/07/06 04:54:53;;;;;;;10.00;5.20;;;;;;;17.09;100.00;99093.49;273952;1266;22219;-81
2023/07/06 05:00:55;;;;;;;8.80;5.00;;;;;;;17.17;100.00;99096.86;273833;1260;22397;-81
2023/07/06 05:07:00;;;;;;;9.80;5.00;;;;;;;17.30;100.00;99103.87;270221;1258;23804;-81
2023/07/06 05:13:02;;;;;;;12.80;6.00;;;;;;;17.44;100.00;99117.36;270296;1266;22545;-81
2023/07/06 05:19:57;;;;;;;;;;;;;;;;;;;;;
2023/07/06 05:26:11;;;;;;;10.20;5.60;;;;;;;17.56;100.00;99144.62;273183;1260;23198;-81
2023/07/06 05:32:17;;;;;;;11.80;5.30;;;;;;;17.51;100.00;99146.84;272205;1266;22472;-80
2023/07/06 05:38:19;;;;;;;10.00;5.20;;;;;;;17.51;100.00;99159.73;274009;1266;22387;-82
2023/07/06 05:44:20;;;;;;;13.40;5.80;;;;;;;17.56;100.00;99179.49;273925;1261;23308;-82
2023/07/06 05:50:23;;;;;;;9.40;4.80;;;;;;;17.61;100.00;99186.79;274003;1266;22406;-82
2023/07/06 05:57:02;;;;;;;;;;;;;;;;;;;;;
2023/07/06 06:03:31;;;;;;;10.30;4.80;;;;;;;17.68;100.00;99192.94;272780;1266;22569;-83
2023/07/06 06:09:52;;;;;;;9.60;5.00;;;;;;;17.66;100.00;99189.66;273046;1266;22274;-82
2023/07/06 06:16:12;;;;;;;11.80;5.00;;;;;;;17.62;100.00;99188.77;272752;1266;22372;-79
2023/07/06 06:22:25;;;;;;;10.30;4.70;;;;;;;17.63;100.00;99192.64;273920;1266;23586;-82
2023/07/06 06:28:29;;;;;;;9.50;4.40;;;;;;;17.69;100.00;99206.06;272368;1266;23783;-83
2023/07/06 06:36:13;;;;;;;;;;;;;;;;;;;;;
2023/07/06 06:50:20;;;;;;;8.30;3.70;;;;;;;17.70;100.00;99225.27;272179;1260;22459;-82
2023/07/06 06:56:22;;;;;;;8.80;4.40;;;;;;;17.68;100.00;99230.75;273406;1266;22206;-82
2023/07/06 07:04:02;;;;;;;12.20;4.50;;;;;;;17.70;100.00;99230.23;273032;1266;23099;-81
2023/07/06 07:10:12;;;;;;;8.60;4.20;;;;;;;17.73;100.00;99234.01;272954;1266;22211;-81
2023/07/06 07:17:31;;;;;;;10.40;4.30;;;;;;;17.72;100.00;99237.75;272312;1266;22978;-80
2023/07/06 07:24:11;;;;;;;8.90;4.70;;;;;;;17.65;100.00;99244.23;271053;1266;22566;-82
2023/07/06 07:30:17;;;;;;;6.40;3.90;;;;;;;17.65;100.00;99251.21;271922;1266;22428;-82
2023/07/06 07:36:19;;;;;;;10.80;4.70;;;;;;;17.68;100.00;99252.99;272038;1250;22291;-82
2023/07/06 07:42:20;;;;;;;8.10;4.50;;;;;;;17.67;100.00;99255.45;272684;1266;22541;-82
2023/07/06 07:48:26;;;;;;;9.90;4.50;;;;;;;17.66;100.00;99255.52;272815;1266;23738;-81
2023/07/06 07:54:28;;;;;;;9.60;4.10;;;;;;;17.72;100.00;99254.83;271290;1266;22566;-81
2023/07/06 08:00:57;;;;;;;9.00;3.90;;;;;;;17.81;100.00;99254.70;271891;1264;22547;-81
2023/07/06 08:06:58;;;;;;;6.30;3.40;;;;;;;17.88;100.00;99255.86;272874;1257;22675;-81
2023/07/06 08:12:59;;;;;;;8.30;3.90;;;;;;;17.93;100.00;99262.05;272021;1266;25954;-82
2023/07/06 08:19:03;;;;;;;8.10;4.10;;;;;;;17.94;100.00;99265.52;272141;1266;23054;-82
2023/07/06 08:25:08;;;;;;;12.80;4.50;;;;;;;17.95;100.00;99264.30;273218;1261;22950;-82
2023/07/06 08:31:14;;;;;;;6.30;4.20;;;;;;;17.93;100.00;99259.05;273982;1260;22223;-81
2023/07/06 08:37:20;;;;;;;11.50;3.90;;;;;;;17.97;100.00;99261.92;273116;1266;22403;-82
2023/07/06 08:43:23;;;;;;;7.70;4.10;;;;;;;18.07;100.00;99260.97;272976;1253;22238;-81
2023/07/06 08:49:28;;;;;;;10.70;4.20;;;;;;;18.25;100.00;99259.67;272300;1254;22452;-80
2023/07/06 08:55:30;;;;;;;8.40;3.60;;;;;;;18.57;100.00;99264.80;273125;1266;22935;-81
2023/07/06 09:01:31;;;;;;;8.90;4.60;;;;;;;19.02;100.00;99270.83;274058;1260;23588;-80
2023/07/06 09:07:47;;;;;;;7.30;4.20;;;;;;;19.65;100.00;99265.38;273322;1264;22904;-82
2023/07/06 09:13:51;;;;;;;7.90;4.30;;;;;;;20.14;99.07;99266.55;274000;1265;22515;-80
2023/07/06 09:19:52;;;;;;;4.20;3.00;;;;;;;20.32;97.68;99265.48;273001;1266;22568;-81
2023/07/06 09:25:54;;;;;;;8.10;3.80;;;;;;;20.42;96.72;99267.40;271257;1266;23558;-82
2023/07/06 09:32:16;;;;;;;10.80;3.70;;;;;;;20.42;95.20;99276.52;270993;1266;22541;-83
2023/07/06 09:38:21;;;;;;;7.40;2.70;;;;;;;20.50;94.23;99276.11;272108;1256;22467;-82
2023/07/06 09:44:45;;;;;;;5.50;3.20;;;;;;;20.63;92.65;99273.79;271234;1260;22632;-81
2023/07/06 09:51:24;;;;;;;8.30;2.60;;;;;;;20.81;91.02;99272.23;271796;1266;23200;-81
2023/07/06 09:57:50;;;;;;;;;;;;;;;;;;;;;
2023/07/06 10:04:57;;;;;;;7.10;2.80;;;;;;;20.97;85.51;99271.98;271608;1266;23547;-81
2023/07/06 10:11:57;;;;;;;;;;;;;;;21.11;84.39;99282.10;271384;1258;22522;-81
2023/07/06 10:18:45;;;;;;;5.40;3.30;;;;;;;21.11;83.72;99284.88;272696;1266;25255;-81
2023/07/06 10:26:04;;;;;;;7.30;3.20;;;;;;;21.08;83.65;99284.98;271998;1266;22557;-81
2023/07/06 10:32:45;;;;;;;6.30;2.80;;;;;;;21.00;82.73;99283.53;272001;1266;23367;-81
2023/07/06 10:38:57;;;;;;;5.80;3.00;;;;;;;20.99;82.97;99285.14;273057;1266;22204;-80
2023/07/06 10:46:04;;;;;;;5.70;2.80;;;;;;;21.01;81.74;99288.13;273654;1266;23117;-81
2023/07/06 10:52:52;;;;;;;4.40;3.10;;;;;;;20.95;81.42;99289.02;273196;1266;22396;-81
2023/07/06 10:59:13;;;;;;;6.10;3.30;;;;;;;20.87;81.00;99290.83;272108;1266;22531;-80
2023/07/06 11:06:51;;;;;;;;;;;;;;;;;;;;;
2023/07/06 11:14:46;;;;;;;;;;;;;;;;;;;;;
2023/07/06 11:21:39;;;;;;;11.10;3.40;;;;;;;20.76;80.09;99301.27;273056;1260;22436;-80
2023/07/06 11:28:04;;;;;;;4.80;3.00;;;;;;;20.89;79.47;99299.92;274100;1256;22232;-80
2023/07/06 11:34:47;;;;;;;5.20;3.10;;;;;;;21.19;79.24;99303.84;273077;1266;23541;-80
2023/07/06 11:41:29;;;;;;;;;;;;;;;;;;;;;
2023/07/06 11:48:07;;;;;;;5.90;3.30;;;;;;;21.55;78.31;99309.45;273276;1266;22390;-81
2023/07/06 11:54:29;;;;;;;9.80;3.00;;;;;;;21.54;78.45;99310.81;272145;1263;22595;-81
2023/07/06 12:01:32;;;;;;;8.30;2.80;;;;;;;21.42;78.22;99315.37;271060;1266;22179;-81
2023/07/06 12:07:40;;;;;;;8.10;3.10;;;;;;;21.10;77.68;99313.70;273052;1253;22441;-81
2023/07/06 12:13:43;;;;;;;6.00;2.90;;;;;;;20.89;77.76;99311.94;272630;1256;22208;-82
2023/07/06 12:20:00;;;;;;;6.00;3.20;;;;;;;20.74;77.48;99312.21;272215;1257;22495;-81
2023/07/06 12:26:05;;;;;;;5.50;3.10;;;;;;;20.65;77.44;99313.48;272290;1266;24720;-82
2023/07/06 12:32:37;;;;;;;7.30;3.80;;;;;;;20.65;77.57;99306.10;272574;1267;22605;-82
2023/07/06 12:38:38;;;;;;;5.40;3.00;;;;;;;20.63;77.24;99312.59;270559;1266;25457;-81
2023/07/06 12:44:42;;;;;;;8.80;3.20;;;;;;;20.55;77.43;99316.35;271905;1257;22992;-81
2023/07/06 12:50:47;;;;;;;7.80;3.50;;;;;;;20.45;77.24;99317.36;271872;1266;23691;-82
2023/07/06 12:57:05;;;;;;;6.30;3.00;;;;;;;20.30;77.30;99316.52;272920;1264;22148;-81
2023/07/06 13:03:10;;;;;;;7.20;3.30;;;;;;;20.37;77.76;99305.98;272405;1257;22552;-83
2023/07/06 13:09:19;;;;;;;11.50;3.60;;;;;;;20.48;77.03;99306.98;271186;1263;22217;-82
2023/07/06 13:15:23;;;;;;;5.70;3.00;;;;;;;20.48;76.23;99300.54;270974;1266;23869;-82
2023/07/06 13:21:26;;;;;;;5.50;3.60;;;;;;;20.53;76.01;99290.02;270907;1253;22852;-81
2023/07/06 13:27:28;;;;;;;5.70;3.20;;;;;;;20.45;75.18;99283.52;271647;1266;23870;-82
2023/07/06 13:33:31;;;;;;;8.00;3.50;;;;;;;20.47;75.44;99282.05;271402;1254;23943;-82
2023/07/06 13:39:32;;;;;;;7.60;3.30;;;;;;;20.45;75.58;99279.97;272179;1266;22403;-81
2023/07/06 13:45:41;;;;;;;9.10;3.70;;;;;;;20.41;75.35;99270.52;272177;1263;22157;-82
2023/07/06 13:52:13;;;;;;;6.00;3.40;;;;;;;20.51;75.43;99268.29;273104;1266;22891;-81
2023/07/06 13:58:19;;;;;;;8.10;3.30;;;;;;;20.60;75.39;99273.07;272140;1262;22941;-82
2023/07/06 14:04:32;;;;;;;5.70;2.90;;;;;;;20.65;75.09;99283.20;273300;1266;22394;-79
2023/07/06 14:10:43;;;;;;;4.90;3.40;;;;;;;20.68;75.76;99282.02;273797;1266;22405;-80
2023/07/06 14:18:30;;;;;;;;;;;;;;;;;;;;;
2023/07/06 14:24:33;;;;;;;5.30;2.60;;;;;;;20.94;76.11;99283.49;272486;1267;22423;-80
2023/07/06 14:31:23;;;;;;;;;;;;;;;;;;;;;
2023/07/06 14:37:37;;;;;;;5.30;3.20;;;;;;;21.18;73.68;99285.27;273836;1266;22399;-80
2023/07/06 14:43:41;;;;;;;8.30;3.70;;;;;;;21.07;72.92;99279.58;273615;1266;22190;-80
2023/07/06 14:49:46;;;;;;;7.60;3.20;;;;;;;20.96;72.67;99277.00;273655;1266;22336;-80
2023/07/06 14:56:38;;;;;;;6.50;3.90;;;;;;;20.70;73.62;99277.27;272805;1258;22555;-80
2023/07/06 15:03:08;;;;;;;;;;;;;;;;;;;;;
2023/07/06 15:09:10;;;;;;;8.90;3.20;;;;;;;20.53;74.23;99280.56;272538;1266;1608824;-81
2023/07/06 15:15:27;;;;;;;6.60;3.90;;;;;;;20.47;73.85;99283.17;271650;1266;22619;-80
2023/07/06 15:22:18;;;;;;;5.60;3.00;;;;;;;20.41;74.86;99274.34;273315;1267;22699;-80
2023/07/06 15:28:21;;;;;;;6.90;3.00;;;;;;;20.39;75.29;99271.45;273866;1266;22862;-80
2023/07/06 15:34:23;;;;;;;7.90;3.70;;;;;;;20.38;74.16;99271.09;273720;1266;22245;-80
2023/07/06 15:41:02;;;;;;;4.80;3.40;;;;;;;20.29;74.58;99271.98;273890;1266;22423;-80
2023/07/06 15:47:28;;;;;;;3.60;2.70;;;;;;;20.23;74.18;99272.69;273168;1266;22490;-80
2023/07/06 15:53:31;;;;;;;4.90;2.90;;;;;;;20.27;73.45;99276.19;273628;1256;23899;-80
2023/07/06 15:59:41;;;;;;;6.30;4.10;;;;;;;20.35;72.78;99276.23;272898;1266;22401;-80
2023/07/06 16:05:56;;;;;;;7.10;3.60;;;;;;;20.42;73.00;99268.59;273459;1262;23227;-80
2023/07/06 16:11:57;;;;;;;5.00;3.60;;;;;;;20.49;72.66;99263.17;272980;1253;22578;-80
2023/07/06 16:17:58;;;;;;;4.70;3.30;;;;;;;20.59;72.08;99252.67;271573;1264;23751;-80
2023/07/06 16:23:59;;;;;;;6.20;3.90;;;;;;;20.73;71.07;99249.62;271361;1264;22580;-80
2023/07/06 16:30:00;;;;;;;7.00;3.90;;;;;;;20.86;70.70;99251.10;272252;1264;22748;-80
2023/07/06 16:36:02;;;;;;;8.60;4.10;;;;;;;20.95;69.92;99248.89;273218;1266;22187;-80
2023/07/06 16:42:03;;;;;;;10.90;4.00;;;;;;;20.92;69.29;99246.73;273604;1256;22445;-80
2023/07/06 16:48:05;;;;;;;6.10;3.70;;;;;;;20.86;69.52;99244.65;273200;1266;22643;-80
2023/07/06 16:54:05;;;;;;;5.20;3.50;;;;;;;20.75;69.64;99251.23;272734;1266;22562;-80
2023/07/06 17:00:07;;;;;;;7.40;4.20;;;;;;;20.68;69.11;99256.13;271251;1266;22530;-82
2023/07/06 17:06:18;;;;;;;8.90;3.80;;;;;;;20.59;68.97;99256.96;264613;1256;10002011;-81
2023/07/06 17:12:29;;;;;;;10.70;4.50;;;;;;;20.54;68.85;99260.19;273891;1264;22264;-81
2023/07/06 17:18:36;;;;;;;6.30;4.20;;;;;;;20.50;68.96;99262.84;273563;1266;22241;-81
2023/07/06 17:24:37;;;;;;;7.40;3.90;;;;;;;20.45;69.11;99262.95;273435;1256;22232;-81
2023/07/06 17:30:38;;;;;;;6.00;3.60;;;;;;;20.33;69.46;99266.90;273153;1266;22594;-81
2023/07/06 17:36:39;;;;;;;6.20;3.60;;;;;;;20.25;70.40;99269.65;272566;1257;25469;-81
2023/07/06 17:42:40;;;;;;;5.90;4.00;;;;;;;20.09;70.74;99269.89;272277;1266;22689;-81
2023/07/06 17:49:03;;;;;;;7.20;4.10;;;;;;;19.99;71.37;99274.48;273017;1266;22365;-81
2023/07/06 17:55:04;;;;;;;10.50;4.20;;;;;;;19.95;71.50;99278.46;273604;1257;22318;-80
2023/07/06 18:01:19;;;;;;;;;;;;;;;;;;;;;
2023/07/06 18:07:27;;;;;;;8.90;3.60;;;;;;;19.85;73.75;99282.97;273779;1263;22433;-79
2023/07/06 18:13:28;;;;;;;5.00;3.60;;;;;;;19.73;75.10;99283.63;273051;1266;22569;-80
2023/07/06 18:19:29;;;;;;;7.30;3.90;;;;;;;19.54;75.68;99282.02;273413;1267;23229;-80
2023/07/06 18:25:30;;;;;;;11.10;4.60;;;;;;;19.41;78.24;99283.11;273807;1266;22195;-80
2023/07/06 18:31:31;;;;;;;12.70;4.40;;;;;;;19.27;79.52;99287.83;273700;1266;22218;-80
2023/07/06 18:37:54;;;;;;;7.00;3.70;;;;;;;19.08;79.60;99286.48;273416;1267;22547;-80
2023/07/06 18:43:55;;;;;;;10.60;4.30;;;;;;;18.87;80.32;99289.80;273575;1266;22429;-80
2023/07/06 18:50:31;;;;;;;10.00;4.20;;;;;;;18.69;80.33;99298.83;272642;1267;22190;-81
2023/07/06 18:56:32;;;;;;;7.20;4.20;;;;;;;18.49;80.31;99315.71;273794;1266;22399;-80
2023/07/06 19:02:35;;;;;;;8.80;4.50;;;;;;;18.26;81.21;99318.95;273732;1257;22281;-81
2023/07/06 19:08:36;;;;;;;14.50;4.40;;;;;;;18.05;82.36;99327.64;273834;1266;23603;-80
2023/07/06 19:14:38;;;;;;;8.10;5.00;;;;;;;17.86;82.85;99337.48;273707;1266;23331;-80
2023/07/06 19:20:41;;;;;;;8.30;4.30;;;;;;;17.74;82.72;99347.60;273675;1266;22424;-80
2023/07/06 19:26:42;;;;;;;11.10;5.20;;;;;;;17.56;83.28;99354.05;273623;1264;23989;-80
2023/07/06 19:32:43;;;;;;;10.60;5.80;;;;;;;17.39;83.82;99348.77;272654;1267;22563;-80
2023/07/06 19:38:45;;;;;;;11.60;5.70;;;;;;;17.22;84.45;99354.38;272877;1266;22517;-80
2023/07/06 19:44:48;;;;;;;13.00;6.20;;;;;;;16.93;85.26;99358.45;273360;1267;22550;-79
2023/07/06 19:50:49;;;;;;;10.70;6.70;;;;;;;16.74;85.94;99361.21;272394;1260;22437;-80
2023/07/06 19:56:50;;;;;;;12.60;4.80;;;;;;;16.65;86.59;99367.90;273613;1254;22336;-82
2023/07/06 20:02:54;;;;;;;12.50;5.60;;;;;;;16.59;88.05;99373.56;273326;1261;22365;-81
2023/07/06 20:08:58;;;;;;;9.30;6.30;;;;;;;16.45;88.32;99369.07;273451;1267;22382;-80
2023/07/06 20:14:59;;;;;;;12.30;6.80;;;;;;;16.25;88.67;99376.43;273412;1267;22554;-80
2023/07/06 20:21:01;;;;;;;14.70;6.20;;;;;;;16.09;89.00;99373.04;273640;1267;22404;-80
2023/07/06 20:27:02;;;;;;;21.00;7.10;;;;;;;15.99;89.52;99376.72;273526;1254;23760;-80
2023/07/06 20:33:03;;;;;;;12.20;6.10;;;;;;;15.86;90.18;99378.84;273661;1257;22506;-81
2023/07/06 20:39:05;;;;;;;11.00;7.60;;;;;;;15.66;90.48;99382.05;273445;1266;22262;-80
2023/07/06 20:45:06;;;;;;;11.40;6.90;;;;;;;15.51;90.92;99390.30;273684;1266;22368;-80
2023/07/06 20:51:08;;;;;;;13.90;6.60;;;;;;;15.42;91.76;99393.79;273624;1267;23180;-80
2023/07/06 20:57:09;;;;;;;13.00;8.00;;;;;;;15.29;92.28;99397.72;273934;1256;22208;-80
2023/07/06 21:03:10;;;;;;;13.40;7.80;;;;;;;15.16;92.46;99405.45;273687;1267;22578;-81
2023/07/06 21:09:31;;;;;;;15.00;7.10;;;;;;;15.07;92.93;99409.32;273865;1267;23042;-80
2023/07/06 21:16:23;;;;;;;20.10;8.30;;;;;;;14.90;93.36;99406.88;273628;1267;23802;-80
2023/07/06 21:22:25;;;;;;;18.50;9.10;;;;;;;14.74;93.51;99411.05;272754;1266;22696;-80
2023/07/06 21:28:27;;;;;;;16.50;8.20;;;;;;;14.69;94.03;99415.99;271980;1266;22400;-80
2023/07/06 21:34:28;;;;;;;15.80;7.40;;;;;;;14.61;94.27;99422.60;272815;1267;24232;-80
2023/07/06 21:40:29;;;;;;;16.10;7.30;;;;;;;14.48;94.43;99430.20;272500;1266;22573;-79
2023/07/06 21:46:31;;;;;;;16.70;7.40;;;;;;;14.34;94.68;99427.95;273402;1263;23120;-81
2023/07/06 21:52:33;;;;;;;13.90;7.30;;;;;;;14.17;94.90;99424.74;273169;1266;22223;-79
2023/07/06 21:58:34;;;;;;;11.10;6.20;;;;;;;14.12;95.36;99427.55;272958;1254;23923;-81
2023/07/06 22:04:35;;;;;;;13.10;6.50;;;;;;;14.05;95.57;99428.94;273729;1256;22621;-80
2023/07/06 22:10:45;;;;;;;11.60;7.70;;;;;;;13.97;95.80;99426.71;272236;1266;22550;-80
2023/07/06 22:16:46;;;;;;;17.40;7.00;;;;;;;13.90;96.19;99428.23;273229;1266;22533;-80
2023/07/06 22:22:47;;;;;;;14.00;5.60;;;;;;;13.82;96.78;99430.01;273699;1266;23375;-80
2023/07/06 22:28:50;;;;;;;13.00;7.20;;;;;;;13.73;96.95;99431.86;273609;1257;22523;-81
2023/07/06 22:34:51;;;;;;;12.90;7.90;;;;;;;13.60;97.11;99433.27;272314;1266;22299;-81
2023/07/06 22:40:53;;;;;;;15.50;6.80;;;;;;;13.51;97.49;99438.55;273863;1266;22562;-81
2023/07/06 22:46:54;;;;;;;11.20;7.20;;;;;;;13.40;97.67;99432.04;273401;1266;23481;-81
2023/07/06 22:53:00;;;;;;;16.00;6.80;;;;;;;13.29;98.11;99428.91;273936;1266;22554;-81
2023/07/06 22:59:22;;;;;;;10.30;6.90;;;;;;;13.19;98.43;99434.88;273207;1266;22506;-82
2023/07/06 23:05:26;;;;;;;12.60;7.90;;;;;;;13.14;98.87;99435.70;273844;1265;23338;-80
2023/07/06 23:11:29;;;;;;;10.30;7.60;;;;;;;13.08;99.17;99435.81;273301;1262;22512;-80
2023/07/06 23:17:34;;;;;;;11.50;7.30;;;;;;;13.04;99.70;99439.15;273707;1266;24650;-81
2023/07/06 23:23:35;;;;;;;13.90;7.70;;;;;;;13.00;99.79;99441.84;273765;1266;22545;-80
2023/07/06 23:29:43;;;;;;;12.00;8.30;;;;;;;12.97;99.96;99438.66;273841;1253;23731;-80
2023/07/06 23:35:45;;;;;;;12.50;7.10;;;;;;;12.92;100.00;99437.92;273846;1266;22255;-80
2023/07/06 23:41:51;;;;;;;13.90;8.20;;;;;;;12.86;100.00;99435.98;273792;1251;23237;-83
2023/07/06 23:48:21;;;;;;;13.20;8.10;;;;;;;12.79;100.00;99431.27;273109;1266;22380;-81
2023/07/06 23:54:35;;;;;;;19.70;9.00;;;;;;;12.71;100.00;99430.51;273387;1262;23117;-81
